• Join FlightAware (Why Join?)
  • Login
  • US Flag 
07:43AM EST


 

Airport Tracker/Info


-or-


 

Live Flight TrackerFlight Track Log ✈ EGF4383 ✈ 30-Apr-2013 ✈ KCHO - KORD

Flight Track Log - Related Links

Times and Time Zones

All times are in EDT time to prevent confusion due to time zone crossing. See the EGF4383 flight status page for this flight to view local times or setup timezone preferences in your user account.

Time Position Orientation Groundspeed Altitude Reporting Facility
EDT Latitude Longitude Course Direction KTS MPH feet Rate Location/Type
04:56PM 38.1667 -78.4333 294° West 159 183 1,900  Level Potomac TRACON
04:57PM 38.2319 -78.4942 324° Northwest 218 251 5,800 2,400 Climbing Washington Center
04:58PM 38.2552 -78.7954 299° West  Level FlightAware Approximate
04:58PM 38.2553 -78.5664 292° West 229 264 7,900  Level Washington Center
04:59PM 38.3033 -78.9080 298° West  Level FlightAware Approximate
04:59PM 38.2864 -78.6575 294° West 245 282 10,000  Level Washington Center
05:00PM 38.3506 -79.0213 298° West  Level FlightAware Approximate
05:00PM 38.3172 -78.7517 293° West 271 312 11,900  Level Washington Center
05:01PM 38.3961 -79.1359 294° West  Level FlightAware Approximate
05:01PM 38.3542 -78.8511 295° West 296 341 13,500  Level Washington Center
05:02PM 38.3908 -78.9614 293° West 316 364 15,300 1,680 Climbing Washington Center
05:03PM 38.4294 -79.0664 295° West 328 377 16,900 1,620 Climbing Washington Center
05:04PM 38.4642 -79.1661 294° West 334 384 18,600 1,860 Climbing Washington Center
05:05PM 38.5003 -79.2767 293° West 339 390 20,700 1,800 Climbing Washington Center
05:06PM 38.5367 -79.3819 294° West 339 390 22,300 1,800 Climbing Washington Center
05:07PM 38.5786 -79.5036 294° West 339 390 24,400 1,620 Climbing Washington Center
05:08PM 38.6167 -79.6172 293° West 339 390 25,500 780 Climbing Washington Center
05:09PM 38.6692 -79.7292 301° West 345 397 26,000 240 Climbing Washington Center
05:10PM 38.7319 -79.8444 305° West 374 430 26,000  Level Washington Center
05:11PM 38.7944 -79.9600 305° West 415 478 26,000  Level Washington Center
05:13PM 38.9253 -80.1972 305° West 433 498 26,000  Level Indianapolis Center
05:14PM 38.9775 -80.3400 295° West 443 510 26,000  Level Indianapolis Center
05:15PM 39.0292 -80.4819 295° West 442 509 26,000  Level Indianapolis Center
05:16PM 39.0836 -80.6247 296° West 446 513 26,000  Level Indianapolis Center
05:17PM 39.1369 -80.7692 295° West 449 517 26,000  Level Indianapolis Center
05:18PM 39.1903 -80.9153 295° West 452 520 26,000  Level Indianapolis Center
05:19PM 39.2536 -81.0836 296° West 441 507 26,000  Level Indianapolis Center
05:20PM 39.3064 -81.2264 296° West 442 509 26,000  Level Indianapolis Center
05:21PM 39.3583 -81.3717 295° West 448 516 26,000  Level Indianapolis Center
05:22PM 39.4117 -81.5175 295° West 450 518 26,000  Level Indianapolis Center
05:23PM 39.4644 -81.6639 295° West 452 520 26,000  Level Indianapolis Center
05:24PM 39.5292 -81.8417 295° West 455 524 26,000  Level Indianapolis Center
05:25PM 39.5822 -81.9936 294° West 461 531 26,000  Level Indianapolis Center
05:26PM 39.6383 -82.1511 295° West 458 527 26,000  Level Indianapolis Center
05:27PM 39.6928 -82.3025 295° West 458 527 26,000  Level Indianapolis Center
05:28PM 39.7461 -82.4550 294° West 461 531 26,000  Level Indianapolis Center
05:29PM 39.7997 -82.6083 295° West 462 532 26,000  Level Indianapolis Center
05:31PM 39.8539 -82.7611 295° West 463 533 26,000  Level Indianapolis Center
05:32PM 39.9061 -82.9150 294° West 461 531 26,000  Level Indianapolis Center
05:33PM 39.9678 -83.0922 294° West 461 531 26,000  Level Indianapolis Center
05:34PM 40.0200 -83.2450 294° West 461 531 26,000  Level Indianapolis Center
05:35PM 40.0725 -83.3983 294° West 465 535 26,000  Level Indianapolis Center
05:36PM 40.1244 -83.5522 294° West 466 536 26,000  Level Indianapolis Center
05:37PM 40.1764 -83.7053 294° West 461 531 26,000  Level Indianapolis Center
05:38PM 40.2267 -83.8583 293° West 457 526 26,000  Level Indianapolis Center
05:39PM 40.2864 -84.0347 294° West 451 519 26,000  Level Indianapolis Center
05:40PM 40.3633 -84.1661 308° West 453 521 26,000  Level Indianapolis Center
05:41PM 40.4433 -84.2950 309° West 452 520 26,000  Level Indianapolis Center
05:42PM 40.5214 -84.4236 309° West 448 516 26,000  Level Indianapolis Center
05:43PM 40.5989 -84.5531 308° West 447 514 26,000  Level Indianapolis Center
05:43PM 40.6281 -84.6008 309° West 449 517 26,000  Level Chicago Center
05:44PM 40.6994 -84.7203 308° West 426 490 26,000  Level Chicago Center
05:45PM 40.7639 -84.8261 309° West 382 440 26,000  Level Chicago Center
05:46PM 40.8306 -84.9353 309° West 379 436 26,000  Level Chicago Center
05:47PM 40.8844 -85.0597 300° West 386 444 26,000  Level Chicago Center
05:48PM 40.9475 -85.2103 299° West 390 449 26,000  Level Chicago Center
05:49PM 40.9983 -85.3350 298° West 388 447 26,000 -60 Level Chicago Center
05:50PM 41.0486 -85.4553 299° West 376 433 25,900 -480 Descending Chicago Center
05:52PM 41.0989 -85.5789 298° West 379 436 25,100 -480 Descending Chicago Center
05:53PM 41.1542 -85.7153 298° West 412 474 25,000 -60 Descending Chicago Center
05:54PM 41.2111 -85.8561 298° West 428 493 25,000  Level Chicago Center
05:55PM 41.2675 -85.9961 298° West 428 493 25,000  Level Chicago Center
05:56PM 41.3200 -86.1697 292° West 426 490 25,000  Level Chicago Center
05:57PM 41.3547 -86.3214 287° West 431 496 25,000 -900 Level Chicago Center
05:58PM 41.3922 -86.4714 288° West 429 494 23,200 -1,920 Descending Chicago Center
05:59PM 41.4292 -86.6178 289° West 421 484 21,100 -2,160 Descending Chicago Center
06:00PM 41.4614 -86.7453 289° West 378 435 18,800 -2,280 Descending Chicago Center
06:01PM 41.4911 -86.8717 287° West 364 419 16,500 -2,040 Descending Chicago Center
06:02PM 41.5250 -87.0042 289° West 316 364 14,700 -1,680 Descending Chicago Center
06:03PM 41.5494 -87.1083 287° West 301 346 13,000 -1,500 Descending Chicago Center
06:04PM 41.5667 -87.1833 287° West 287 330 12,200 -600 Descending Chicago TRACON
06:05PM 41.6000 -87.2833 294° West 343 395 12,000 -300 Descending Chicago TRACON
06:06PM 41.6667 -87.3833 312° West 361 415 11,700 -600 Descending Chicago TRACON
06:06PM 41.6997 -87.4381 309° West 358 412 11,200 -780 Descending Chicago Center
06:07PM 41.7589 -87.5353 309° West 345 397 10,600 -1,140 Descending Chicago Center
06:08PM 41.8067 -87.6142 309° West 280 322 8,900 -1,800 Descending Chicago Center
06:09PM 41.8333 -87.6667 304° West 278 320 7,700 -1,320 Descending Chicago TRACON
06:10PM 41.9000 -87.7167 331° Northwest 298 343 7,000 -900 Descending Chicago TRACON
06:11PM 41.9667 -87.7000 11° North 254 292 6,000 -1,620 Descending Chicago TRACON
06:12PM 42.0333 -87.7167 349° North 243 280 3,800 -2,220 Descending Chicago TRACON